createdAt,value
2017-05-23T00:00:32.173Z,66.60
2017-05-23T00:03:00.467Z,66.70
2017-05-23T00:05:27.960Z,66.70
2017-05-23T00:07:56.240Z,66.90
2017-05-23T00:10:24.495Z,67.00
2017-05-23T00:12:52.771Z,67.00
2017-05-23T00:15:21.030Z,66.90
2017-05-23T00:17:49.308Z,66.80
2017-05-23T00:20:17.673Z,67.50
2017-05-23T00:22:45.944Z,67.10
2017-05-23T00:25:14.207Z,66.80
2017-05-23T00:27:42.492Z,66.40
2017-05-23T00:30:10.757Z,67.60
2017-05-23T00:32:39.028Z,67.50
2017-05-23T00:35:07.289Z,66.90
2017-05-23T00:37:35.564Z,67.10
2017-05-23T00:40:03.823Z,67.10
2017-05-23T00:42:32.100Z,67.20
2017-05-23T00:45:00.359Z,66.60
2017-05-23T00:47:28.652Z,66.70
2017-05-23T00:49:56.900Z,67.00
2017-05-23T00:52:25.186Z,67.80
2017-05-23T00:54:53.447Z,66.90
2017-05-23T00:57:21.704Z,67.30
2017-05-23T00:59:49.969Z,66.80
2017-05-23T01:02:18.220Z,67.10
2017-05-23T01:04:46.497Z,67.60
2017-05-23T01:07:13.988Z,67.60
2017-05-23T01:09:42.259Z,68.30
2017-05-23T01:12:09.756Z,68.20
2017-05-23T01:14:38.033Z,68.00
2017-05-23T01:17:06.296Z,67.80
2017-05-23T01:19:34.572Z,67.70
2017-05-23T01:22:02.826Z,67.20
2017-05-23T01:24:31.111Z,66.90
2017-05-23T01:26:59.391Z,66.10
2017-05-23T01:29:27.679Z,66.30
2017-05-23T01:31:55.943Z,66.10
2017-05-23T01:34:24.237Z,66.20
2017-05-23T01:36:52.504Z,66.30
2017-05-23T01:39:20.783Z,66.60
2017-05-23T01:41:49.104Z,66.80
2017-05-23T01:44:17.383Z,67.60
2017-05-23T01:46:45.638Z,67.90
2017-05-23T01:49:13.916Z,67.60
2017-05-23T01:51:43.091Z,68.00
2017-05-23T01:54:11.391Z,68.10
2017-05-23T01:56:38.894Z,68.10
2017-05-23T01:59:07.171Z,68.00
2017-05-23T02:01:35.438Z,68.10
2017-05-23T02:04:03.735Z,68.50
2017-05-23T02:06:31.995Z,68.70
2017-05-23T02:09:00.275Z,68.90
2017-05-23T02:11:28.566Z,69.00
2017-05-23T02:13:56.833Z,69.40
2017-05-23T02:16:24.683Z,69.40
2017-05-23T02:18:52.947Z,71.70
2017-05-23T02:21:21.951Z,72.20
2017-05-23T02:23:50.223Z,72.40
2017-05-23T02:26:17.729Z,72.40
2017-05-23T02:28:46.005Z,72.20
2017-05-23T02:31:13.531Z,72.20
2017-05-23T02:33:42.555Z,71.90
2017-05-23T02:36:10.835Z,72.40
2017-05-23T02:38:39.096Z,73.10
2017-05-23T02:41:07.392Z,74.00
2017-05-23T02:43:35.658Z,73.80
2017-05-23T02:46:03.940Z,74.10
2017-05-23T02:48:31.445Z,74.00
2017-05-23T02:50:59.736Z,73.50
2017-05-23T02:53:28.011Z,74.00
2017-05-23T02:55:56.303Z,74.10
2017-05-23T02:58:24.561Z,74.40
2017-05-23T03:00:52.071Z,74.30
2017-05-23T03:03:20.335Z,74.20
2017-05-23T03:05:48.624Z,74.30
2017-05-23T03:08:16.123Z,74.30
2017-05-23T03:10:44.411Z,74.90
2017-05-23T03:13:12.693Z,74.50
2017-05-23T03:15:40.202Z,74.50
2017-05-23T03:18:08.479Z,75.20
2017-05-23T03:20:36.751Z,75.60
2017-05-23T03:23:05.031Z,76.00
2017-05-23T03:25:33.299Z,75.80
2017-05-23T03:28:00.824Z,75.80
2017-05-23T03:30:29.088Z,74.40
2017-05-23T03:32:57.378Z,74.40
2017-05-23T03:35:25.638Z,74.20
2017-05-23T03:37:53.929Z,74.70
2017-05-23T03:40:22.203Z,75.10
2017-05-23T03:42:50.491Z,75.30
2017-05-23T03:45:18.751Z,74.60
2017-05-23T03:47:47.040Z,74.40
2017-05-23T03:50:15.307Z,73.90
2017-05-23T03:52:43.603Z,74.40
2017-05-23T03:55:11.863Z,75.00
2017-05-23T03:57:39.373Z,74.70
2017-05-23T04:00:07.634Z,74.00
2017-05-23T04:02:35.914Z,74.50
2017-05-23T04:05:04.178Z,74.60
2017-05-23T04:07:31.690Z,74.60
2017-05-23T04:09:59.952Z,74.40
2017-05-23T04:12:28.246Z,74.50
2017-05-23T04:14:56.500Z,74.40
2017-05-23T04:17:24.791Z,74.40
2017-05-23T04:19:53.052Z,74.30
2017-05-23T04:22:21.323Z,73.30
2017-05-23T04:24:49.595Z,72.90
2017-05-23T04:27:17.855Z,72.50
2017-05-23T04:29:46.142Z,72.60
2017-05-23T04:32:13.659Z,72.50
2017-05-23T04:34:41.956Z,71.70
2017-05-23T04:37:10.227Z,71.20
2017-05-23T04:39:38.512Z,71.40
2017-05-23T04:42:06.779Z,71.50
2017-05-23T04:44:34.296Z,71.50
2017-05-23T04:47:02.567Z,70.90
2017-05-23T04:49:30.845Z,71.40
2017-05-23T04:51:59.107Z,71.40
2017-05-23T04:54:27.388Z,70.80
2017-05-23T04:56:55.650Z,70.80
2017-05-23T04:59:24.044Z,71.20
2017-05-23T05:01:51.559Z,71.20
2017-05-23T05:04:19.093Z,71.10
2017-05-23T05:06:47.428Z,71.40
2017-05-23T05:09:15.698Z,70.50
2017-05-23T05:11:43.960Z,69.90
2017-05-23T05:14:11.487Z,69.90
2017-05-23T05:16:39.771Z,70.40
2017-05-23T05:19:08.051Z,70.50
2017-05-23T05:21:36.318Z,70.60
2017-05-23T05:24:03.840Z,70.60
2017-05-23T05:26:32.109Z,70.00
2017-05-23T05:28:59.613Z,70.00
2017-05-23T05:31:27.891Z,68.30
2017-05-23T05:33:56.156Z,67.80
2017-05-23T05:36:24.447Z,67.80
2017-05-23T05:38:52.723Z,67.90
2017-05-23T05:41:20.248Z,67.90
2017-05-23T05:43:48.526Z,68.30
2017-05-23T05:46:16.815Z,68.20
2017-05-23T05:48:45.081Z,67.40
2017-05-23T05:51:12.609Z,67.40
2017-05-23T05:53:40.879Z,64.30
2017-05-23T05:56:09.163Z,60.60
2017-05-23T06:10:07.754Z,49.70
2017-05-23T06:12:36.052Z,47.00
2017-05-23T06:15:03.567Z,47.00
2017-05-23T06:17:32.658Z,45.40
2017-05-23T06:20:00.935Z,44.60
2017-05-23T06:22:28.462Z,44.60
2017-05-23T06:24:56.727Z,43.30
2017-05-23T06:27:25.013Z,42.60
2017-05-23T06:29:53.284Z,41.90
2017-05-23T06:32:21.565Z,42.80
2017-05-23T06:34:49.838Z,40.90
2017-05-23T06:37:18.116Z,39.30
2017-05-23T06:39:46.383Z,38.20
2017-05-23T06:42:13.883Z,38.20
2017-05-23T06:44:42.139Z,37.30
2017-05-23T06:47:10.421Z,36.50
2017-05-23T06:49:38.693Z,35.50
2017-05-23T06:52:06.997Z,35.80
2017-05-23T06:54:35.267Z,35.80
2017-05-23T06:57:03.567Z,38.20
2017-05-23T06:59:31.833Z,36.40
2017-05-23T07:02:00.114Z,34.60
2017-05-23T07:04:28.385Z,32.60
2017-05-23T07:06:56.666Z,32.40
2017-05-23T07:09:24.924Z,31.80
2017-05-23T07:11:53.191Z,31.00
2017-05-23T07:14:21.513Z,31.60
2017-05-23T07:16:49.794Z,31.40
2017-05-23T07:19:18.075Z,31.30
2017-05-23T07:21:46.351Z,30.40
2017-05-23T07:24:14.626Z,29.90
2017-05-23T07:26:42.906Z,29.10
2017-05-23T07:29:11.198Z,29.40
2017-05-23T07:31:39.471Z,30.60
2017-05-23T07:34:07.770Z,31.00
2017-05-23T07:36:36.039Z,30.50
2017-05-23T07:39:04.311Z,31.30
2017-05-23T07:41:31.802Z,31.30
2017-05-23T07:43:59.307Z,31.20
2017-05-23T07:46:27.567Z,32.20
2017-05-23T07:48:55.844Z,33.10
2017-05-23T07:51:23.341Z,33.20
2017-05-23T07:53:50.854Z,33.90
2017-05-23T07:56:19.116Z,32.50
2017-05-23T07:58:47.387Z,32.20
2017-05-23T08:01:14.883Z,32.30
2017-05-23T08:03:43.160Z,32.00
2017-05-23T08:06:11.431Z,33.10
2017-05-23T08:08:39.715Z,32.70
2017-05-23T08:11:07.974Z,33.30
2017-05-23T08:13:36.243Z,32.90
2017-05-23T08:16:04.516Z,32.90
2017-05-23T08:18:32.810Z,32.70
2017-05-23T08:21:01.075Z,33.00
2017-05-23T08:23:29.353Z,33.50
2017-05-23T08:25:57.641Z,32.00
2017-05-23T08:28:25.132Z,31.90
2017-05-23T08:30:53.408Z,32.70
2017-05-23T08:33:21.668Z,33.50
2017-05-23T08:35:49.940Z,33.30
2017-05-23T08:38:17.443Z,33.20
2017-05-23T08:40:45.723Z,33.20
2017-05-23T08:43:13.211Z,33.30
2017-05-23T08:45:41.492Z,32.60
2017-05-23T08:48:09.754Z,32.20
2017-05-23T08:50:37.275Z,32.20
2017-05-23T08:53:05.530Z,31.60
2017-05-23T08:55:33.818Z,31.30
2017-05-23T08:58:02.449Z,31.20
2017-05-23T09:00:30.715Z,31.30
2017-05-23T09:02:58.975Z,31.10
2017-05-23T09:05:27.251Z,30.80
2017-05-23T09:07:54.743Z,30.70
2017-05-23T09:10:23.017Z,30.30
2017-05-23T09:12:51.279Z,31.60
2017-05-23T09:15:19.551Z,33.00
2017-05-23T09:17:47.024Z,32.70
2017-05-23T09:20:14.535Z,33.20
2017-05-23T09:22:42.799Z,33.70
2017-05-23T09:38:16.114Z,30.00
2017-05-23T09:40:44.362Z,30.00
2017-05-23T09:43:12.633Z,29.60
2017-05-23T09:45:40.879Z,29.40
2017-05-23T09:48:09.139Z,29.80
2017-05-23T09:50:37.382Z,29.20
2017-05-23T09:53:05.663Z,28.50
2017-05-23T09:55:33.150Z,28.60
2017-05-23T09:58:15.522Z,29.80
2017-05-23T10:00:43.783Z,29.70
2017-05-23T10:03:12.043Z,28.80
2017-05-23T10:05:40.295Z,29.40
2017-05-23T10:08:08.569Z,28.10
2017-05-23T10:10:36.819Z,29.40
2017-05-23T10:13:05.087Z,30.00
2017-05-23T10:15:33.333Z,29.20
2017-05-23T10:18:18.044Z,29.00
2017-05-23T10:20:46.296Z,28.20
2017-05-23T10:23:14.579Z,29.40
2017-05-23T10:25:42.823Z,30.00
2017-05-23T10:28:11.099Z,30.00
2017-05-23T10:30:39.363Z,29.10
2017-05-23T10:33:07.627Z,30.50
2017-05-23T10:35:35.870Z,31.70
2017-05-23T10:38:04.550Z,30.40
2017-05-23T10:40:34.789Z,29.80
2017-05-23T10:43:03.053Z,31.20
2017-05-23T10:45:31.296Z,31.20
2017-05-23T10:47:59.564Z,31.10
2017-05-23T10:50:27.822Z,31.30
2017-05-23T10:52:56.079Z,32.40
2017-05-23T10:55:24.348Z,30.70
2017-05-23T10:57:52.595Z,30.60
2017-05-23T11:00:20.856Z,30.10
2017-05-23T11:02:55.135Z,30.10
2017-05-23T11:05:23.402Z,30.40
2017-05-23T11:07:51.651Z,29.80
2017-05-23T11:10:19.918Z,29.70
2017-05-23T11:12:48.175Z,30.90
2017-05-23T11:15:16.443Z,31.40
2017-05-23T11:17:45.026Z,31.00
2017-05-23T11:20:13.287Z,30.60
2017-05-23T11:22:41.537Z,30.00
2017-05-23T11:25:09.816Z,31.00
2017-05-23T11:27:38.063Z,31.00
2017-05-23T11:30:06.335Z,31.40
2017-05-23T11:32:35.473Z,30.80
2017-05-23T11:35:03.731Z,31.50
2017-05-23T11:37:32.005Z,31.60
2017-05-23T11:40:00.278Z,31.80
2017-05-23T11:42:28.547Z,32.60
2017-05-23T11:44:56.838Z,32.70
2017-05-23T11:47:25.090Z,33.20
2017-05-23T11:49:53.951Z,32.20
2017-05-23T11:52:22.191Z,33.90
2017-05-23T11:54:50.456Z,34.20
2017-05-23T11:57:18.698Z,34.10
2017-05-23T11:59:46.970Z,33.70
2017-05-23T12:02:15.223Z,33.20
2017-05-23T12:04:43.474Z,33.30
2017-05-23T12:07:11.758Z,33.20
2017-05-23T12:09:40.003Z,33.40
2017-05-23T12:12:08.263Z,34.40
2017-05-23T12:14:36.518Z,34.00
2017-05-23T12:17:04.791Z,33.60
2017-05-23T12:19:33.053Z,33.60
2017-05-23T12:22:01.318Z,34.10
2017-05-23T12:24:29.561Z,33.40
2017-05-23T12:26:57.819Z,32.60
2017-05-23T12:29:26.083Z,33.10
2017-05-23T12:31:54.352Z,33.70
2017-05-23T12:34:22.599Z,34.60
2017-05-23T12:36:50.871Z,34.20
2017-05-23T12:39:19.122Z,33.40
2017-05-23T12:41:47.399Z,33.00
2017-05-23T12:44:15.647Z,33.90
2017-05-23T12:46:43.919Z,34.10
2017-05-23T12:49:12.167Z,33.50
2017-05-23T12:51:40.437Z,34.20
2017-05-23T12:54:08.698Z,32.70
2017-05-23T12:56:36.963Z,32.70
2017-05-23T12:59:05.216Z,33.20
2017-05-23T13:01:33.485Z,33.20
2017-05-23T13:04:01.733Z,34.40
2017-05-23T13:06:30.004Z,33.00
2017-05-23T13:08:58.261Z,33.60
2017-05-23T13:11:26.507Z,32.80
2017-05-23T13:13:54.767Z,31.10
2017-05-23T13:16:22.247Z,31.10
2017-05-23T13:18:49.743Z,30.80
2017-05-23T13:21:18.894Z,30.30
2017-05-23T13:23:47.166Z,30.90
2017-05-23T13:26:15.415Z,30.50
2017-05-23T13:28:43.691Z,29.90
2017-05-23T13:31:12.603Z,30.50
2017-05-23T13:33:40.878Z,31.00
2017-05-23T13:36:09.133Z,30.00
2017-05-23T13:38:38.203Z,30.00
2017-05-23T13:41:06.482Z,29.30
2017-05-23T13:43:34.766Z,28.60
2017-05-23T13:46:03.020Z,29.20
2017-05-23T13:48:31.299Z,29.70
2017-05-23T13:51:00.347Z,29.10
2017-05-23T13:53:28.627Z,28.40
2017-05-23T13:55:56.134Z,28.40
2017-05-23T13:58:25.527Z,27.40
2017-05-23T14:00:53.811Z,28.20
2017-05-23T14:03:22.356Z,28.60
2017-05-23T14:05:50.630Z,29.00
2017-05-23T14:08:19.120Z,29.00
2017-05-23T14:10:48.103Z,29.30
2017-05-23T14:13:16.607Z,29.60
2017-05-23T14:15:45.271Z,30.00
2017-05-23T14:18:13.563Z,30.50
2017-05-23T14:20:42.343Z,30.10
2017-05-23T14:23:10.844Z,30.20
2017-05-23T14:25:39.163Z,30.30
2017-05-23T14:28:08.682Z,29.60
2017-05-23T14:30:37.199Z,30.40
2017-05-23T14:33:05.475Z,30.20
2017-05-23T14:35:33.411Z,30.20
2017-05-23T14:38:01.923Z,30.20
2017-05-23T14:40:31.547Z,30.40
2017-05-23T14:43:00.171Z,31.00
2017-05-23T14:45:29.669Z,31.60
2017-05-23T14:47:57.983Z,32.00
2017-05-23T14:50:28.156Z,32.10
2017-05-23T14:52:57.207Z,31.40
2017-05-23T14:55:25.523Z,32.10
2017-05-23T14:57:53.485Z,32.10
2017-05-23T15:00:21.971Z,33.20
2017-05-23T15:02:50.701Z,34.10
2017-05-23T15:05:19.123Z,33.30
2017-05-23T15:07:48.284Z,33.80
2017-05-23T15:10:16.587Z,32.70
2017-05-23T15:12:44.870Z,32.30
2017-05-23T15:15:13.813Z,32.60
2017-05-23T15:17:42.091Z,31.40
2017-05-23T15:20:10.371Z,32.50
2017-05-23T15:22:38.649Z,32.90
2017-05-23T15:25:06.911Z,34.10
2017-05-23T15:27:36.869Z,34.40
2017-05-23T15:30:04.385Z,34.40
2017-05-23T15:32:32.360Z,34.70
2017-05-23T15:35:00.963Z,35.70
2017-05-23T15:37:29.508Z,36.20
2017-05-23T15:39:57.758Z,36.40
2017-05-23T15:42:26.039Z,37.60
2017-05-23T15:44:54.531Z,37.30
2017-05-23T15:47:22.804Z,37.30
2017-05-23T15:49:52.657Z,37.70
2017-05-23T15:52:20.946Z,38.20
2017-05-23T15:54:50.174Z,38.30
2017-05-23T15:57:18.443Z,39.20
2017-05-23T15:59:46.943Z,39.40
2017-05-23T16:02:15.560Z,39.30
2017-05-23T16:04:44.271Z,38.50
2017-05-23T16:07:12.764Z,38.80
2017-05-23T16:09:41.054Z,39.30
2017-05-23T16:12:09.372Z,39.00
2017-05-23T16:14:37.655Z,39.40
2017-05-23T16:17:05.983Z,39.70
2017-05-23T16:19:34.277Z,39.70
2017-05-23T16:22:02.915Z,39.80
2017-05-23T16:24:31.187Z,39.50
2017-05-23T16:26:58.674Z,39.40
2017-05-23T16:29:27.641Z,39.70
2017-05-23T16:31:55.950Z,39.70
2017-05-23T16:34:25.229Z,39.80
2017-05-23T16:36:55.247Z,39.70
2017-05-23T16:39:28.295Z,39.30
2017-05-23T16:41:58.216Z,39.90
2017-05-23T16:44:27.784Z,39.40
2017-05-23T16:46:56.908Z,39.20
2017-05-23T16:49:26.006Z,39.00
2017-05-23T16:51:54.424Z,39.50
2017-05-23T16:54:23.015Z,39.30
2017-05-23T16:56:51.574Z,39.40
2017-05-23T16:59:21.964Z,39.20
2017-05-23T17:01:51.272Z,39.50
2017-05-23T17:04:20.015Z,39.50
2017-05-23T17:06:49.316Z,39.90
2017-05-23T17:09:17.815Z,40.40
2017-05-23T17:11:45.297Z,40.40
2017-05-23T17:14:14.362Z,40.60
2017-05-23T17:16:42.943Z,40.40
2017-05-23T17:19:11.911Z,40.80
2017-05-23T17:21:40.687Z,40.80
2017-05-23T17:24:09.013Z,40.90
2017-05-23T17:26:37.339Z,41.20
2017-05-23T17:29:06.913Z,41.40
2017-05-23T17:31:35.498Z,41.40
2017-05-23T17:34:04.128Z,41.30
2017-05-23T17:36:32.389Z,41.40
2017-05-23T17:39:01.702Z,41.10
2017-05-23T17:41:29.543Z,41.10
2017-05-23T17:43:57.804Z,41.00
2017-05-23T17:46:26.659Z,41.70
2017-05-23T17:48:56.326Z,42.10
2017-05-23T17:51:24.628Z,42.20
2017-05-23T17:53:53.107Z,42.20
2017-05-23T17:56:21.384Z,42.50
2017-05-23T17:58:49.643Z,42.80
2017-05-23T18:01:17.751Z,42.80
2017-05-23T18:03:45.786Z,42.90
2017-05-23T18:06:14.438Z,43.30
2017-05-23T18:08:42.723Z,43.50
2017-05-23T18:11:10.485Z,43.50
2017-05-23T18:13:39.795Z,43.30
2017-05-23T18:16:09.556Z,44.20
2017-05-23T18:18:40.338Z,44.30
2017-05-23T18:21:09.602Z,44.30
2017-05-23T18:23:37.914Z,45.20
2017-05-23T18:26:06.484Z,45.30
2017-05-23T18:28:35.084Z,45.60
2017-05-23T18:33:38.517Z,45.80
2017-05-23T18:36:07.834Z,46.00
2017-05-23T18:38:38.375Z,46.80
2017-05-23T18:41:09.028Z,47.10
2017-05-23T18:43:37.326Z,47.10
2017-05-23T18:46:05.818Z,47.40
2017-05-23T18:48:34.097Z,47.70
2017-05-23T18:51:02.807Z,47.70
2017-05-23T18:53:31.340Z,47.90
2017-05-23T18:55:59.591Z,48.30
2017-05-23T18:58:28.204Z,48.40
2017-05-23T19:00:56.463Z,48.50
2017-05-23T19:03:25.098Z,48.50
2017-05-23T19:05:53.363Z,48.70
2017-05-23T19:08:21.630Z,48.80
2017-05-23T19:10:50.155Z,48.80
2017-05-23T19:13:18.633Z,49.10
2017-05-23T19:15:47.143Z,48.90
2017-05-23T19:18:15.711Z,49.40
2017-05-23T19:20:45.491Z,49.60
2017-05-23T19:23:13.761Z,49.60
2017-05-23T19:25:42.068Z,49.60
2017-05-23T19:28:11.213Z,49.80
2017-05-23T19:30:39.538Z,49.70
2017-05-23T19:33:08.036Z,50.10
2017-05-23T19:35:35.539Z,50.00
2017-05-23T19:38:04.298Z,49.80
2017-05-23T19:40:32.601Z,49.90
2017-05-23T19:43:00.480Z,49.90
2017-05-23T19:45:29.155Z,50.20
2017-05-23T19:47:57.416Z,50.70
2017-05-23T19:50:25.690Z,50.80
2017-05-23T19:52:55.906Z,51.10
2017-05-23T19:55:23.430Z,51.10
2017-05-23T19:57:52.023Z,51.00
2017-05-23T20:00:20.771Z,51.20
2017-05-23T20:02:49.838Z,51.40
2017-05-23T20:05:19.049Z,51.10
2017-05-23T20:07:47.648Z,51.00
2017-05-23T20:10:16.188Z,50.10
2017-05-23T20:12:45.524Z,49.70
2017-05-23T20:15:14.584Z,49.10
2017-05-23T20:17:43.317Z,49.40
2017-05-23T20:20:11.918Z,48.70
2017-05-23T20:22:40.594Z,48.70
2017-05-23T20:25:08.866Z,48.70
2017-05-23T20:27:37.368Z,49.10
2017-05-23T20:30:06.223Z,48.60
2017-05-23T20:32:35.403Z,48.70
2017-05-23T20:35:02.915Z,48.60
2017-05-23T20:37:31.202Z,48.50
2017-05-23T20:39:59.512Z,48.10
2017-05-23T20:42:27.776Z,48.10
2017-05-23T20:44:56.755Z,48.40
2017-05-23T20:47:25.035Z,48.40
2017-05-23T20:49:54.892Z,48.90
2017-05-23T20:52:23.397Z,48.20
2017-05-23T20:54:53.153Z,48.30
2017-05-23T20:57:22.206Z,47.90
2017-05-23T20:59:50.511Z,48.10
2017-05-23T21:02:18.794Z,48.60
2017-05-23T21:04:47.088Z,48.40
2017-05-23T21:07:15.335Z,48.30
2017-05-23T21:09:43.906Z,48.00
2017-05-23T21:12:13.352Z,48.00
2017-05-23T21:14:41.639Z,48.50
2017-05-23T21:17:09.910Z,48.40
2017-05-23T21:19:38.656Z,48.60
2017-05-23T21:22:06.930Z,48.00
2017-05-23T21:24:35.218Z,47.40
2017-05-23T21:27:03.823Z,47.40
2017-05-23T21:29:32.915Z,47.40
2017-05-23T21:32:02.063Z,47.20
2017-05-23T21:34:30.988Z,47.00
2017-05-23T21:36:59.951Z,46.60
2017-05-23T21:39:29.502Z,46.80
2017-05-23T21:41:57.815Z,46.80
2017-05-23T21:44:26.304Z,46.80
2017-05-23T21:46:55.329Z,47.00
2017-05-23T21:49:23.579Z,46.60
2017-05-23T21:51:52.198Z,46.90
2017-05-23T21:54:21.423Z,46.90
2017-05-23T21:56:49.935Z,46.90
2017-05-23T21:59:18.618Z,46.80
2017-05-23T22:01:47.672Z,46.90
2017-05-23T22:04:16.867Z,46.80
2017-05-23T22:06:45.544Z,46.80
2017-05-23T22:09:13.047Z,46.80
2017-05-23T22:11:41.303Z,46.70
2017-05-23T22:14:10.264Z,46.80
2017-05-23T22:16:38.549Z,46.80
2017-05-23T22:19:06.831Z,46.60
2017-05-23T22:21:35.789Z,46.50
2017-05-23T22:24:04.061Z,46.20
2017-05-23T22:26:33.287Z,46.00
2017-05-23T22:29:01.614Z,46.30
2017-05-23T22:31:31.123Z,46.00
2017-05-23T22:34:00.070Z,45.60
2017-05-23T22:36:28.339Z,45.90
2017-05-23T22:38:57.500Z,46.10
2017-05-23T22:41:26.874Z,46.80
2017-05-23T22:43:55.455Z,46.30
2017-05-23T22:46:24.647Z,46.80
2017-05-23T22:48:52.917Z,46.40
2017-05-23T22:51:21.482Z,46.10
2017-05-23T22:53:50.658Z,46.10
2017-05-23T22:56:19.551Z,45.80
2017-05-23T22:58:47.826Z,45.60
2017-05-23T23:01:16.109Z,45.70
2017-05-23T23:03:44.383Z,45.90
2017-05-23T23:06:12.702Z,45.80
2017-05-23T23:08:40.986Z,45.80
2017-05-23T23:11:09.255Z,45.70
2017-05-23T23:13:37.545Z,46.10
2017-05-23T23:16:05.834Z,46.10
2017-05-23T23:18:34.471Z,46.20
2017-05-23T23:21:04.047Z,46.80
2017-05-23T23:23:33.060Z,46.60
2017-05-23T23:26:01.667Z,46.70
2017-05-23T23:28:32.486Z,46.50
2017-05-23T23:31:00.738Z,46.80
2017-05-23T23:33:29.343Z,46.80
2017-05-23T23:35:57.843Z,46.80
2017-05-23T23:38:26.433Z,46.60
2017-05-23T23:40:54.693Z,46.70
2017-05-23T23:43:22.960Z,47.10
2017-05-23T23:45:52.903Z,46.50
2017-05-23T23:48:21.198Z,47.70
2017-05-23T23:50:49.478Z,46.80
2017-05-23T23:53:18.143Z,46.50
2017-05-23T23:55:47.352Z,47.10
2017-05-23T23:58:15.653Z,46.80
